Time;durP1;ratioP1;P1;durP2;ratioP2;P2;SDS_P1;SDS_P2;PMS_P1;PMS_P2;Temp;Humidity;BMP_temperature;BMP_pressure;BME280_temperature;BME280_humidity;BME280_pressure;Samples;Min_cycle;Max_cycle;Signal;HPM_P1;HPM_P2
2021/09/08 00:01:27;;;;;;;7.65;4.28;;;;;;;;;;5049238;28;20123;-58
2021/09/08 00:03:53;;;;;;;8.75;4.95;;;;;;;;;;5052436;28;20048;-59
2021/09/08 00:06:19;;;;;;;8.68;4.80;;;;;;;;;;5057372;28;20036;-59
2021/09/08 00:08:45;;;;;;;7.63;4.22;;;;;;;;;;5046917;28;20025;-58
2021/09/08 00:11:11;;;;;;;9.00;4.18;;;;;;;;;;5054229;28;20051;-53
2021/09/08 00:13:37;;;;;;;7.65;4.35;;;;;;;;;;5058131;28;20044;-58
2021/09/08 00:16:03;;;;;;;7.78;4.72;;;;;;;;;;5053559;28;20068;-57
2021/09/08 00:18:29;;;;;;;8.57;4.93;;;;;;;;;;5037470;28;20455;-57
2021/09/08 00:20:55;;;;;;;8.63;4.32;;;;;;;;;;5062079;28;20032;-57
2021/09/08 00:23:21;;;;;;;11.25;4.72;;;;;;;;;;5058591;28;20496;-57
2021/09/08 00:25:47;;;;;;;9.77;4.97;;;;;;;;;;5050533;28;20354;-58
2021/09/08 00:28:13;;;;;;;8.13;4.43;;;;;;;;;;5040860;28;20025;-59
2021/09/08 00:30:39;;;;;;;7.97;4.20;;;;;;;;;;5042547;28;20048;-56
2021/09/08 00:33:05;;;;;;;8.50;4.88;;;;;;;;;;5056515;28;20013;-58
2021/09/08 00:35:31;;;;;;;11.65;5.03;;;;;;;;;;5054246;28;20045;-57
2021/09/08 00:37:57;;;;;;;6.93;4.10;;;;;;;;;;5057948;28;20067;-57
2021/09/08 00:40:23;;;;;;;8.48;4.95;;;;;;;;;;5045237;28;20420;-59
2021/09/08 00:42:49;;;;;;;8.23;4.70;;;;;;;;;;5046661;28;20025;-58
2021/09/08 00:45:15;;;;;;;8.30;4.55;;;;;;;;;;5053455;28;20068;-59
2021/09/08 00:47:41;;;;;;;11.05;4.88;;;;;;;;;;5052206;28;20036;-58
2021/09/08 00:50:08;;;;;;;11.10;5.15;;;;;;;;;;5054395;28;20053;-58
2021/09/08 00:52:36;;;;;;;7.88;4.90;;;;;;;;;;5055591;28;20406;-57
2021/09/08 00:55:04;;;;;;;7.13;4.60;;;;;;;;;;5055835;28;20096;-58
2021/09/08 00:57:30;;;;;;;8.05;4.88;;;;;;;;;;5048178;28;20029;-55
2021/09/08 00:59:56;;;;;;;9.10;4.50;;;;;;;;;;5046701;28;20111;-56
2021/09/08 01:02:22;;;;;;;7.80;4.68;;;;;;;;;;5046192;28;20087;-57
2021/09/08 01:04:48;;;;;;;9.10;4.65;;;;;;;;;;5047167;28;20037;-58
2021/09/08 01:07:14;;;;;;;8.68;5.00;;;;;;;;;;5057477;28;20083;-56
2021/09/08 01:09:40;;;;;;;8.77;5.05;;;;;;;;;;5047233;28;20112;-58
2021/09/08 01:12:07;;;;;;;8.15;5.03;;;;;;;;;;5059935;28;20100;-57
2021/09/08 01:14:33;;;;;;;8.90;4.70;;;;;;;;;;5054390;28;20041;-57
2021/09/08 01:16:59;;;;;;;8.80;4.95;;;;;;;;;;5038785;28;20095;-59
2021/09/08 01:19:25;;;;;;;7.25;4.22;;;;;;;;;;5048108;28;20439;-59
2021/09/08 01:21:51;;;;;;;7.70;4.40;;;;;;;;;;5046299;28;20033;-59
2021/09/08 01:24:17;;;;;;;9.95;4.90;;;;;;;;;;5043120;28;20067;-59
2021/09/08 01:26:46;;;;;;;7.70;4.30;;;;;;;;;;5055778;28;20060;-56
2021/09/08 01:29:12;;;;;;;7.47;4.30;;;;;;;;;;5045281;28;20465;-58
2021/09/08 01:31:38;;;;;;;10.85;5.20;;;;;;;;;;5061844;28;20036;-59
2021/09/08 01:34:05;;;;;;;9.30;5.40;;;;;;;;;;5043453;28;20037;-56
2021/09/08 01:36:41;;;;;;;11.13;5.38;;;;;;;;;;5049698;28;20119;-56
2021/09/08 01:39:07;;;;;;;10.10;4.57;;;;;;;;;;5058207;28;20115;-57
2021/09/08 01:41:33;;;;;;;9.02;5.18;;;;;;;;;;5059348;28;20029;-57
2021/09/08 01:43:59;;;;;;;11.20;4.97;;;;;;;;;;5047632;28;20017;-55
2021/09/08 01:46:25;;;;;;;7.05;4.32;;;;;;;;;;5049346;28;20096;-58
2021/09/08 01:48:51;;;;;;;10.30;5.10;;;;;;;;;;5054449;28;20457;-57
2021/09/08 01:51:17;;;;;;;9.25;5.18;;;;;;;;;;5046626;28;20366;-58
2021/09/08 01:53:43;;;;;;;11.57;4.97;;;;;;;;;;5050017;28;20463;-57
2021/09/08 01:56:09;;;;;;;9.50;5.22;;;;;;;;;;5039730;28;20029;-58
2021/09/08 01:58:35;;;;;;;10.93;5.20;;;;;;;;;;5043124;28;20045;-56
2021/09/08 02:01:02;;;;;;;9.40;5.60;;;;;;;;;;5045132;28;20041;-56
2021/09/08 02:03:28;;;;;;;10.77;5.28;;;;;;;;;;5050263;28;20037;-58
2021/09/08 02:05:54;;;;;;;9.13;4.78;;;;;;;;;;5050527;28;20071;-57
2021/09/08 02:08:20;;;;;;;10.27;5.10;;;;;;;;;;5037829;28;20029;-59
2021/09/08 02:10:46;;;;;;;10.48;4.72;;;;;;;;;;5052918;28;20476;-59
2021/09/08 02:13:12;;;;;;;8.23;5.00;;;;;;;;;;5048015;28;20108;-57
2021/09/08 02:15:38;;;;;;;7.90;4.70;;;;;;;;;;5042432;28;20037;-59
2021/09/08 02:18:04;;;;;;;9.15;4.47;;;;;;;;;;5040031;28;20038;-59
2021/09/08 02:20:30;;;;;;;8.30;4.72;;;;;;;;;;5043955;28;20032;-59
2021/09/08 02:22:56;;;;;;;7.38;4.38;;;;;;;;;;5051632;28;20049;-58
2021/09/08 02:25:22;;;;;;;9.77;4.80;;;;;;;;;;5053512;28;20016;-58
2021/09/08 02:27:49;;;;;;;7.30;4.07;;;;;;;;;;5045221;28;20220;-57
2021/09/08 02:30:15;;;;;;;7.70;4.70;;;;;;;;;;5041315;28;20029;-58
2021/09/08 02:32:41;;;;;;;7.28;4.22;;;;;;;;;;5057773;28;20013;-58
2021/09/08 02:35:08;;;;;;;8.98;4.90;;;;;;;;;;5066423;28;20028;-57
2021/09/08 02:37:34;;;;;;;9.52;4.35;;;;;;;;;;5054138;28;20070;-57
2021/09/08 02:40:00;;;;;;;8.65;4.30;;;;;;;;;;5048600;28;20532;-58
2021/09/08 02:42:26;;;;;;;7.72;4.63;;;;;;;;;;5047819;28;20041;-58
2021/09/08 02:44:52;;;;;;;7.75;4.40;;;;;;;;;;5057251;28;20096;-57
2021/09/08 02:47:18;;;;;;;8.32;4.78;;;;;;;;;;5063892;28;20465;-58
2021/09/08 02:49:44;;;;;;;8.00;4.70;;;;;;;;;;5052796;28;20064;-58
2021/09/08 02:52:10;;;;;;;11.98;5.40;;;;;;;;;;5058244;28;20112;-58
2021/09/08 02:54:36;;;;;;;7.30;4.57;;;;;;;;;;5054154;28;20529;-59
2021/09/08 02:57:02;;;;;;;8.65;5.00;;;;;;;;;;5067931;28;20119;-59
2021/09/08 02:59:28;;;;;;;8.95;5.47;;;;;;;;;;5045622;28;20501;-59
2021/09/08 03:01:54;;;;;;;9.00;5.07;;;;;;;;;;5055340;28;20036;-56
2021/09/08 03:04:20;;;;;;;8.82;4.72;;;;;;;;;;5063062;28;20036;-59
2021/09/08 03:06:48;;;;;;;8.00;4.72;;;;;;;;;;5062036;28;20039;-57
2021/09/08 03:09:15;;;;;;;7.32;4.60;;;;;;;;;;5048513;28;20017;-57
2021/09/08 03:11:41;;;;;;;10.35;4.30;;;;;;;;;;5063556;28;20029;-59
2021/09/08 03:14:07;;;;;;;15.48;4.85;;;;;;;;;;5071549;28;20041;-56
2021/09/08 03:16:32;;;;;;;6.72;4.10;;;;;;;;;;5050467;28;20036;-57
2021/09/08 03:18:58;;;;;;;8.43;4.45;;;;;;;;;;5047328;28;20049;-58
2021/09/08 03:21:24;;;;;;;8.30;5.00;;;;;;;;;;5062823;28;20063;-56
2021/09/08 03:23:50;;;;;;;7.57;4.57;;;;;;;;;;5060023;28;20477;-56
2021/09/08 03:26:16;;;;;;;9.82;4.57;;;;;;;;;;5034453;28;20457;-56
2021/09/08 03:28:42;;;;;;;8.52;4.80;;;;;;;;;;5053436;28;20026;-57
2021/09/08 03:31:09;;;;;;;7.45;4.53;;;;;;;;;;5071947;28;20043;-55
2021/09/08 03:33:35;;;;;;;8.85;4.53;;;;;;;;;;5057585;28;20080;-56
2021/09/08 03:36:01;;;;;;;8.75;4.68;;;;;;;;;;5053676;28;20469;-58
2021/09/08 03:38:27;;;;;;;9.73;5.10;;;;;;;;;;5059767;28;20037;-57
2021/09/08 03:40:53;;;;;;;11.02;4.95;;;;;;;;;;5069228;28;20108;-54
2021/09/08 03:43:19;;;;;;;8.85;5.28;;;;;;;;;;5057101;28;20112;-59
2021/09/08 03:45:45;;;;;;;8.02;4.72;;;;;;;;;;5053251;28;20047;-59
2021/09/08 03:48:11;;;;;;;8.02;4.68;;;;;;;;;;5051131;28;20028;-59
2021/09/08 03:50:37;;;;;;;7.55;4.45;;;;;;;;;;5057340;28;20485;-59
2021/09/08 03:53:03;;;;;;;9.13;5.13;;;;;;;;;;5056850;28;20044;-57
2021/09/08 03:55:29;;;;;;;8.07;4.60;;;;;;;;;;5048427;28;20124;-57
2021/09/08 03:57:55;;;;;;;9.13;4.88;;;;;;;;;;5050777;28;20026;-57
2021/09/08 04:00:21;;;;;;;11.25;4.38;;;;;;;;;;5046823;28;20453;-58
2021/09/08 04:02:47;;;;;;;7.55;4.47;;;;;;;;;;5050943;28;20017;-58
2021/09/08 04:05:13;;;;;;;11.07;4.63;;;;;;;;;;5045255;28;20025;-58
2021/09/08 04:07:39;;;;;;;9.98;5.63;;;;;;;;;;5038428;28;20025;-56
2021/09/08 04:10:06;;;;;;;8.82;4.82;;;;;;;;;;5038598;28;20075;-59
2021/09/08 04:12:32;;;;;;;7.68;4.78;;;;;;;;;;5035737;28;20136;-58
2021/09/08 04:14:58;;;;;;;8.13;4.55;;;;;;;;;;5045811;28;20492;-58
2021/09/08 04:17:24;;;;;;;8.77;4.90;;;;;;;;;;5044595;28;20033;-57
2021/09/08 04:19:50;;;;;;;8.57;4.28;;;;;;;;;;5039466;28;20844;-56
2021/09/08 04:22:16;;;;;;;12.82;4.97;;;;;;;;;;5041889;28;20033;-59
2021/09/08 04:24:42;;;;;;;8.93;5.10;;;;;;;;;;5038670;28;20134;-58
2021/09/08 04:27:08;;;;;;;8.65;4.53;;;;;;;;;;5036439;28;20610;-59
2021/09/08 04:29:34;;;;;;;7.32;4.78;;;;;;;;;;5033896;28;20026;-59
2021/09/08 04:32:00;;;;;;;8.00;4.80;;;;;;;;;;5041859;28;20033;-60
2021/09/08 04:34:26;;;;;;;7.53;4.43;;;;;;;;;;5061056;28;20103;-60
2021/09/08 04:36:52;;;;;;;8.02;4.75;;;;;;;;;;5044217;28;20041;-60
2021/09/08 04:39:18;;;;;;;7.53;4.72;;;;;;;;;;5053942;28;20477;-57
2021/09/08 04:41:47;;;;;;;8.82;4.65;;;;;;;;;;5043168;28;20029;-60
2021/09/08 04:44:13;;;;;;;10.80;5.00;;;;;;;;;;5044518;28;20033;-60
2021/09/08 04:46:39;;;;;;;7.50;4.60;;;;;;;;;;5043262;28;20029;-60
2021/09/08 04:49:05;;;;;;;10.25;4.90;;;;;;;;;;5047410;28;20089;-59
2021/09/08 04:51:31;;;;;;;10.13;4.57;;;;;;;;;;5048335;28;20052;-59
2021/09/08 04:53:57;;;;;;;7.65;4.45;;;;;;;;;;5040771;28;20060;-59
2021/09/08 04:56:23;;;;;;;15.57;4.85;;;;;;;;;;5055619;28;20032;-58
2021/09/08 04:58:49;;;;;;;9.80;4.97;;;;;;;;;;5042189;28;20066;-57
2021/09/08 05:01:15;;;;;;;7.72;4.50;;;;;;;;;;5037659;28;20034;-59
2021/09/08 05:03:41;;;;;;;9.82;5.28;;;;;;;;;;5042033;28;20025;-58
2021/09/08 05:06:07;;;;;;;8.73;4.68;;;;;;;;;;5050045;28;20365;-59
2021/09/08 05:08:33;;;;;;;7.57;4.68;;;;;;;;;;5049672;28;20029;-59
2021/09/08 05:10:59;;;;;;;9.02;5.10;;;;;;;;;;5055622;28;20486;-59
2021/09/08 05:13:25;;;;;;;9.38;5.30;;;;;;;;;;5047702;28;20055;-60
2021/09/08 05:15:51;;;;;;;9.70;5.38;;;;;;;;;;5044407;28;20409;-59
2021/09/08 05:18:17;;;;;;;9.82;5.20;;;;;;;;;;5042242;28;20049;-60
2021/09/08 05:20:44;;;;;;;8.88;5.47;;;;;;;;;;5054175;28;20136;-60
2021/09/08 05:23:10;;;;;;;8.65;4.57;;;;;;;;;;5062190;28;20028;-59
2021/09/08 05:25:36;;;;;;;11.43;5.20;;;;;;;;;;5059513;28;20025;-59
2021/09/08 05:28:02;;;;;;;8.25;4.57;;;;;;;;;;5028313;28;20052;-60
2021/09/08 05:30:28;;;;;;;8.77;5.03;;;;;;;;;;5052512;28;20039;-60
2021/09/08 05:32:54;;;;;;;10.18;5.30;;;;;;;;;;5046698;28;20469;-59
2021/09/08 05:35:20;;;;;;;10.05;5.15;;;;;;;;;;5039694;28;20028;-58
2021/09/08 05:37:46;;;;;;;9.73;5.43;;;;;;;;;;5049522;28;20480;-60
2021/09/08 05:40:12;;;;;;;8.23;4.88;;;;;;;;;;5038941;28;20367;-57
2021/09/08 05:42:38;;;;;;;7.20;5.40;;;;;;;;;;5042246;28;20714;-59
2021/09/08 05:45:05;;;;;;;10.15;5.30;;;;;;;;;;5046464;28;20033;-59
2021/09/08 05:47:31;;;;;;;9.07;5.57;;;;;;;;;;5048614;28;20119;-57
2021/09/08 05:49:57;;;;;;;8.90;5.65;;;;;;;;;;5041860;28;20167;-59
2021/09/08 05:52:23;;;;;;;10.70;5.63;;;;;;;;;;5046945;28;20024;-59
2021/09/08 05:54:49;;;;;;;10.90;5.68;;;;;;;;;;5051133;28;20029;-58
2021/09/08 05:57:15;;;;;;;9.88;5.53;;;;;;;;;;5053434;28;20646;-57
2021/09/08 05:59:41;;;;;;;12.32;6.18;;;;;;;;;;5061121;28;20107;-59
2021/09/08 06:02:07;;;;;;;12.15;6.25;;;;;;;;;;5041247;28;20036;-60
2021/09/08 06:04:33;;;;;;;11.43;6.22;;;;;;;;;;5047885;28;20029;-59
2021/09/08 06:06:59;;;;;;;13.50;6.75;;;;;;;;;;5047552;28;20435;-59
2021/09/08 06:09:25;;;;;;;11.75;6.22;;;;;;;;;;5054499;28;20099;-58
2021/09/08 06:11:51;;;;;;;9.90;5.45;;;;;;;;;;5037027;28;20041;-59
2021/09/08 06:14:17;;;;;;;12.60;6.70;;;;;;;;;;5049683;28;20116;-59
2021/09/08 06:16:43;;;;;;;10.98;6.00;;;;;;;;;;5042757;28;20427;-59
2021/09/08 06:19:09;;;;;;;12.15;7.00;;;;;;;;;;5044969;28;20064;-57
2021/09/08 06:21:35;;;;;;;13.80;7.28;;;;;;;;;;5059815;28;20043;-58
2021/09/08 06:24:01;;;;;;;12.70;6.95;;;;;;;;;;5043897;28;20025;-57
2021/09/08 06:26:27;;;;;;;15.27;7.60;;;;;;;;;;5060041;28;20027;-59
2021/09/08 06:28:53;;;;;;;12.90;7.38;;;;;;;;;;5058920;28;20394;-59
2021/09/08 06:31:19;;;;;;;17.98;8.50;;;;;;;;;;5055829;28;20074;-58
2021/09/08 06:33:45;;;;;;;15.85;8.25;;;;;;;;;;5059250;28;20036;-59
2021/09/08 06:36:11;;;;;;;12.82;7.88;;;;;;;;;;5052364;28;20029;-58
2021/09/08 06:38:37;;;;;;;15.15;8.55;;;;;;;;;;5052789;28;20408;-58
2021/09/08 06:41:03;;;;;;;15.30;7.65;;;;;;;;;;5059474;28;20072;-59
2021/09/08 06:43:29;;;;;;;15.23;7.53;;;;;;;;;;5068548;28;20032;-59
2021/09/08 06:45:55;;;;;;;14.73;7.90;;;;;;;;;;5048289;28;20104;-59
2021/09/08 06:48:21;;;;;;;18.15;8.43;;;;;;;;;;5056067;28;20020;-57
2021/09/08 06:50:47;;;;;;;13.68;7.65;;;;;;;;;;5051219;28;20056;-59
2021/09/08 06:53:13;;;;;;;13.60;8.20;;;;;;;;;;5040531;28;20034;-59
2021/09/08 06:55:39;;;;;;;16.38;8.43;;;;;;;;;;5047022;28;20020;-59
2021/09/08 06:58:05;;;;;;;14.75;7.50;;;;;;;;;;5039740;28;20040;-59
2021/09/08 07:00:32;;;;;;;12.63;7.20;;;;;;;;;;5046842;28;20033;-59
2021/09/08 07:02:58;;;;;;;15.80;8.27;;;;;;;;;;5052156;28;20031;-59
2021/09/08 07:05:24;;;;;;;14.38;7.35;;;;;;;;;;5052104;28;20026;-58
2021/09/08 07:07:50;;;;;;;15.50;8.10;;;;;;;;;;5051036;28;20024;-59
2021/09/08 07:10:16;;;;;;;14.38;7.13;;;;;;;;;;5049512;28;20148;-59
2021/09/08 07:12:42;;;;;;;20.65;8.10;;;;;;;;;;5062030;28;20033;-57
2021/09/08 07:15:08;;;;;;;16.85;7.93;;;;;;;;;;5029995;28;20458;-58
2021/09/08 07:17:34;;;;;;;12.85;6.97;;;;;;;;;;5040786;28;20116;-58
2021/09/08 07:20:00;;;;;;;17.02;8.40;;;;;;;;;;5061397;28;20032;-54
2021/09/08 07:22:26;;;;;;;13.18;7.72;;;;;;;;;;5072197;28;20441;-59
2021/09/08 07:24:52;;;;;;;10.88;6.38;;;;;;;;;;5062371;28;20065;-55
2021/09/08 07:27:18;;;;;;;10.63;6.78;;;;;;;;;;5050820;28;20024;-58
2021/09/08 07:29:44;;;;;;;11.55;6.43;;;;;;;;;;5057880;28;20028;-57
2021/09/08 07:32:10;;;;;;;10.95;6.35;;;;;;;;;;5051849;28;21913;-58
2021/09/08 07:34:37;;;;;;;8.48;5.60;;;;;;;;;;5045649;28;20032;-59
2021/09/08 07:37:03;;;;;;;10.70;6.13;;;;;;;;;;5058281;28;20086;-59
2021/09/08 07:39:29;;;;;;;11.65;6.13;;;;;;;;;;5063081;28;20587;-59
2021/09/08 07:41:56;;;;;;;11.05;5.65;;;;;;;;;;5061963;28;20435;-59
2021/09/08 07:44:22;;;;;;;7.60;4.50;;;;;;;;;;5044544;28;20508;-59
2021/09/08 07:46:48;;;;;;;11.65;6.03;;;;;;;;;;5042350;28;20099;-58
2021/09/08 07:49:14;;;;;;;8.48;5.07;;;;;;;;;;5054172;28;20112;-59
2021/09/08 07:51:40;;;;;;;9.57;4.72;;;;;;;;;;5067573;28;20092;-57
2021/09/08 07:54:06;;;;;;;10.73;5.82;;;;;;;;;;5046332;28;20029;-57
2021/09/08 07:56:31;;;;;;;9.93;5.60;;;;;;;;;;5050289;28;20079;-57
2021/09/08 07:58:57;;;;;;;10.95;5.18;;;;;;;;;;5057561;28;20075;-57
2021/09/08 08:01:24;;;;;;;8.95;5.13;;;;;;;;;;5026660;28;20492;-57
2021/09/08 08:03:50;;;;;;;9.13;4.70;;;;;;;;;;5041997;28;20420;-55
2021/09/08 08:06:16;;;;;;;8.73;4.80;;;;;;;;;;5042983;28;20476;-57
2021/09/08 08:08:41;;;;;;;9.35;4.32;;;;;;;;;;5054209;28;20024;-53
2021/09/08 08:11:08;;;;;;;8.70;5.00;;;;;;;;;;5051623;28;20036;-58
2021/09/08 08:13:33;;;;;;;8.35;4.78;;;;;;;;;;5058650;28;20030;-58
2021/09/08 08:15:59;;;;;;;10.38;4.93;;;;;;;;;;5049317;28;20099;-58
2021/09/08 08:18:25;;;;;;;8.05;4.60;;;;;;;;;;5036815;28;20053;-57
2021/09/08 08:20:52;;;;;;;8.18;4.25;;;;;;;;;;5043591;28;20032;-59
2021/09/08 08:23:19;;;;;;;8.63;4.70;;;;;;;;;;5057870;28;21606;-59
2021/09/08 08:25:45;;;;;;;9.63;4.22;;;;;;;;;;5062954;28;20024;-60
2021/09/08 08:28:11;;;;;;;7.97;4.32;;;;;;;;;;5048882;28;20406;-59
2021/09/08 08:30:37;;;;;;;7.22;4.68;;;;;;;;;;5045228;28;20090;-59
2021/09/08 08:33:04;;;;;;;9.02;4.72;;;;;;;;;;5055642;28;20028;-59
2021/09/08 08:35:30;;;;;;;8.98;4.80;;;;;;;;;;5057424;28;20477;-60
2021/09/08 08:37:56;;;;;;;8.52;4.65;;;;;;;;;;5053952;28;20025;-57
2021/09/08 08:40:22;;;;;;;5.85;3.58;;;;;;;;;;5059624;28;20130;-57
2021/09/08 08:42:49;;;;;;;7.43;3.85;;;;;;;;;;5066607;28;20067;-59
2021/09/08 08:45:15;;;;;;;9.95;4.05;;;;;;;;;;5039868;28;20524;-59
2021/09/08 08:47:42;;;;;;;8.98;4.45;;;;;;;;;;5065722;28;20029;-59
2021/09/08 08:50:10;;;;;;;6.55;3.63;;;;;;;;;;5060918;28;20058;-59
2021/09/08 08:52:36;;;;;;;7.35;3.42;;;;;;;;;;5050943;28;20021;-60
2021/09/08 08:55:03;;;;;;;7.72;4.28;;;;;;;;;;5061460;28;20103;-58
2021/09/08 08:57:29;;;;;;;6.45;3.80;;;;;;;;;;5053463;28;20428;-57
2021/09/08 08:59:55;;;;;;;12.55;4.78;;;;;;;;;;5060312;28;20036;-57
2021/09/08 09:02:23;;;;;;;6.88;3.83;;;;;;;;;;5061936;28;20035;-58
2021/09/08 09:04:50;;;;;;;8.95;4.25;;;;;;;;;;5062545;28;20029;-58
2021/09/08 09:07:26;;;;;;;7.32;3.65;;;;;;;;;;5057482;28;20017;-58
2021/09/08 09:09:59;;;;;;;11.20;4.03;;;;;;;;;;5049711;28;20465;-58
2021/09/08 09:12:33;;;;;;;6.70;3.55;;;;;;;;;;5053432;28;20519;-55
2021/09/08 09:15:00;;;;;;;6.03;3.42;;;;;;;;;;5048688;28;20028;-57
2021/09/08 09:17:27;;;;;;;7.22;4.28;;;;;;;;;;5054021;28;20036;-58
2021/09/08 09:19:53;;;;;;;6.93;3.92;;;;;;;;;;5046381;28;20048;-59
2021/09/08 09:22:20;;;;;;;8.32;3.65;;;;;;;;;;5051716;28;20017;-60
2021/09/08 09:24:51;;;;;;;8.70;3.80;;;;;;;;;;5052020;28;20366;-60
2021/09/08 09:27:17;;;;;;;7.38;3.92;;;;;;;;;;5052830;28;20069;-60
2021/09/08 09:29:43;;;;;;;6.68;3.45;;;;;;;;;;5044963;28;20116;-60
2021/09/08 09:32:11;;;;;;;5.93;3.40;;;;;;;;;;5050067;28;20104;-60
2021/09/08 09:34:38;;;;;;;8.68;3.80;;;;;;;;;;5041011;28;20032;-59
2021/09/08 09:37:04;;;;;;;7.00;3.70;;;;;;;;;;5047336;28;20021;-59
2021/09/08 09:39:32;;;;;;;6.63;3.60;;;;;;;;;;5047833;28;20030;-56
2021/09/08 09:41:59;;;;;;;6.88;3.90;;;;;;;;;;5037653;28;20025;-59
2021/09/08 09:44:30;;;;;;;6.50;3.78;;;;;;;;;;5038674;28;20112;-59
2021/09/08 09:46:56;;;;;;;7.68;4.07;;;;;;;;;;5041384;28;20025;-58
2021/09/08 09:49:22;;;;;;;7.25;4.00;;;;;;;;;;5051104;28;20100;-58
2021/09/08 09:51:48;;;;;;;8.80;3.65;;;;;;;;;;5061987;28;20105;-58
2021/09/08 09:54:18;;;;;;;6.43;3.78;;;;;;;;;;5055529;28;20024;-60
2021/09/08 09:56:44;;;;;;;9.70;4.13;;;;;;;;;;5051199;28;20036;-59
2021/09/08 09:59:10;;;;;;;7.72;4.00;;;;;;;;;;5046246;28;20083;-59
2021/09/08 10:01:36;;;;;;;6.10;3.33;;;;;;;;;;5039363;28;20055;-59
2021/09/08 10:04:02;;;;;;;8.55;3.88;;;;;;;;;;5057706;28;20021;-59
2021/09/08 10:06:30;;;;;;;5.72;3.40;;;;;;;;;;5059324;28;20025;-58
2021/09/08 10:08:56;;;;;;;6.10;2.92;;;;;;;;;;5055764;28;20075;-58
2021/09/08 10:11:33;;;;;;;5.75;3.70;;;;;;;;;;5053239;28;20033;-60
2021/09/08 10:14:03;;;;;;;7.57;3.75;;;;;;;;;;5056250;28;20033;-59
2021/09/08 10:16:29;;;;;;;6.75;3.70;;;;;;;;;;5050322;28;20041;-57
2021/09/08 10:18:55;;;;;;;6.07;3.45;;;;;;;;;;5046196;28;20045;-58
2021/09/08 10:21:21;;;;;;;5.63;3.17;;;;;;;;;;5053048;28;20033;-60
2021/09/08 10:24:02;;;;;;;7.05;3.42;;;;;;;;;;5052961;28;20747;-60
2021/09/08 10:26:30;;;;;;;7.05;3.42;;;;;;;;;;5048727;28;20025;-59
2021/09/08 10:29:05;;;;;;;6.50;3.50;;;;;;;;;;5053258;28;20024;-58
2021/09/08 10:31:31;;;;;;;6.93;4.38;;;;;;;;;;5052211;28;20167;-59
2021/09/08 10:33:58;;;;;;;7.47;4.03;;;;;;;;;;5047928;28;20101;-59
2021/09/08 10:36:24;;;;;;;7.25;3.78;;;;;;;;;;5056374;28;20028;-59
2021/09/08 10:39:04;;;;;;;6.13;3.53;;;;;;;;;;5063244;28;20032;-59
2021/09/08 10:41:43;;;;;;;6.18;3.40;;;;;;;;;;5050569;28;20167;-57
2021/09/08 10:44:09;;;;;;;7.32;3.88;;;;;;;;;;5057210;28;20021;-58
2021/09/08 10:46:48;;;;;;;7.70;3.25;;;;;;;;;;5051438;28;20029;-60
2021/09/08 10:49:43;;;;;;;5.00;3.05;;;;;;;;;;5042135;28;20026;-60
2021/09/08 10:52:14;;;;;;;7.25;2.92;;;;;;;;;;5048694;28;20124;-60
2021/09/08 10:54:59;;;;;;;5.95;3.30;;;;;;;;;;5045066;28;20485;-58
2021/09/08 10:57:43;;;;;;;4.18;3.05;;;;;;;;;;5050497;28;20029;-57
2021/09/08 11:00:11;;;;;;;6.60;3.67;;;;;;;;;;5059533;28;20115;-60
2021/09/08 11:02:40;;;;;;;7.00;3.75;;;;;;;;;;5047073;28;20029;-59
2021/09/08 11:05:06;;;;;;;7.30;3.90;;;;;;;;;;5042753;28;20035;-59
2021/09/08 11:07:32;;;;;;;6.85;3.60;;;;;;;;;;5046780;28;20029;-59
2021/09/08 11:10:05;;;;;;;5.90;3.15;;;;;;;;;;5043522;28;20178;-59
2021/09/08 11:12:50;;;;;;;8.40;3.97;;;;;;;;;;5048739;28;20125;-60
2021/09/08 11:15:18;;;;;;;5.75;3.50;;;;;;;;;;5043879;28;20124;-59
2021/09/08 11:17:44;;;;;;;5.40;3.45;;;;;;;;;;5050521;28;20056;-58
2021/09/08 11:20:10;;;;;;;6.43;3.70;;;;;;;;;;5049207;28;20069;-58
2021/09/08 11:22:36;;;;;;;13.38;4.53;;;;;;;;;;5042673;28;20041;-59
2021/09/08 11:25:07;;;;;;;9.75;3.47;;;;;;;;;;5043522;28;20107;-58
2021/09/08 11:27:34;;;;;;;7.47;3.75;;;;;;;;;;5052825;28;20509;-60
2021/09/08 11:30:04;;;;;;;6.85;3.30;;;;;;;;;;5057678;28;20029;-59
2021/09/08 11:32:48;;;;;;;5.05;3.58;;;;;;;;;;5024650;28;20025;-57
2021/09/08 11:35:14;;;;;;;6.18;3.63;;;;;;;;;;5040746;28;20030;-59
2021/09/08 11:37:43;;;;;;;7.68;3.70;;;;;;;;;;5048279;28;20091;-57
2021/09/08 11:40:10;;;;;;;6.15;3.45;;;;;;;;;;5048692;28;20025;-58
2021/09/08 11:42:42;;;;;;;4.93;2.88;;;;;;;;;;5047457;28;20032;-59
2021/09/08 11:45:09;;;;;;;4.95;2.95;;;;;;;;;;5055066;28;20105;-57
2021/09/08 11:47:35;;;;;;;7.07;3.35;;;;;;;;;;5059637;28;20033;-58
2021/09/08 11:50:01;;;;;;;3.90;2.80;;;;;;;;;;5050625;28;20028;-58
2021/09/08 11:52:28;;;;;;;5.00;3.38;;;;;;;;;;5049352;28;20029;-59
2021/09/08 11:54:54;;;;;;;6.32;3.15;;;;;;;;;;5046869;28;20120;-59
2021/09/08 11:57:24;;;;;;;3.67;2.40;;;;;;;;;;5050076;28;20064;-58
2021/09/08 11:59:53;;;;;;;5.07;2.65;;;;;;;;;;5021101;28;20116;-56
2021/09/08 12:02:19;;;;;;;4.75;2.58;;;;;;;;;;5044976;28;20029;-59
2021/09/08 12:04:45;;;;;;;5.95;2.75;;;;;;;;;;5044755;28;20086;-59
2021/09/08 12:07:11;;;;;;;5.30;3.10;;;;;;;;;;5048381;28;20029;-58
2021/09/08 12:09:40;;;;;;;4.10;2.70;;;;;;;;;;5060164;28;20075;-60
2021/09/08 12:12:07;;;;;;;5.18;3.30;;;;;;;;;;5054152;28;20064;-60
2021/09/08 12:14:33;;;;;;;4.90;2.65;;;;;;;;;;5053192;28;20037;-58
2021/09/08 12:17:03;;;;;;;5.45;2.83;;;;;;;;;;5048770;28;20051;-60
2021/09/08 12:19:33;;;;;;;5.15;2.97;;;;;;;;;;5057717;28;20148;-60
2021/09/08 12:22:08;;;;;;;6.03;3.03;;;;;;;;;;5057882;28;20033;-60
2021/09/08 12:24:41;;;;;;;4.40;2.20;;;;;;;;;;5047118;28;20026;-59
2021/09/08 12:27:23;;;;;;;5.07;3.00;;;;;;;;;;5051228;28;20082;-60
2021/09/08 12:29:49;;;;;;;5.10;2.38;;;;;;;;;;5046871;28;20085;-60
2021/09/08 12:32:16;;;;;;;6.05;2.67;;;;;;;;;;5053010;28;20119;-58
2021/09/08 12:34:44;;;;;;;6.75;2.72;;;;;;;;;;5060210;28;20082;-59
2021/09/08 12:37:10;;;;;;;4.00;2.50;;;;;;;;;;5057907;28;20025;-60
2021/09/08 12:39:43;;;;;;;4.28;2.13;;;;;;;;;;5035390;28;20381;-60
2021/09/08 12:42:16;;;;;;;4.43;2.83;;;;;;;;;;5049386;28;20111;-60
2021/09/08 12:44:42;;;;;;;5.50;3.20;;;;;;;;;;5052846;28;20033;-60
2021/09/08 12:47:12;;;;;;;3.35;2.05;;;;;;;;;;5061824;28;20032;-60
2021/09/08 12:49:39;;;;;;;5.03;2.25;;;;;;;;;;5057473;28;20489;-59
2021/09/08 12:52:06;;;;;;;3.97;2.40;;;;;;;;;;5043221;28;20025;-60
2021/09/08 12:54:33;;;;;;;3.72;2.20;;;;;;;;;;5038762;28;20064;-62
2021/09/08 12:56:59;;;;;;;3.70;1.95;;;;;;;;;;5043809;28;20064;-62
2021/09/08 12:59:27;;;;;;;6.25;1.85;;;;;;;;;;5055239;28;20061;-60
2021/09/08 13:01:54;;;;;;;2.80;1.60;;;;;;;;;;5049969;28;20531;-59
2021/09/08 13:04:20;;;;;;;2.90;1.55;;;;;;;;;;5041350;28;20030;-60
2021/09/08 13:06:46;;;;;;;2.03;1.23;;;;;;;;;;5051789;28;20033;-60
2021/09/08 13:09:13;;;;;;;2.92;1.65;;;;;;;;;;5060760;28;20024;-60
2021/09/08 13:11:39;;;;;;;5.53;2.15;;;;;;;;;;5058149;28;20409;-57
2021/09/08 13:14:05;;;;;;;4.03;1.55;;;;;;;;;;5046748;28;20116;-58
2021/09/08 13:16:33;;;;;;;2.50;1.45;;;;;;;;;;5054500;28;20529;-58
2021/09/08 13:18:59;;;;;;;3.38;1.40;;;;;;;;;;5048706;28;20052;-58
2021/09/08 13:21:25;;;;;;;2.83;1.75;;;;;;;;;;5059080;28;20025;-58
2021/09/08 13:23:51;;;;;;;2.22;1.50;;;;;;;;;;5028014;28;20051;-58
2021/09/08 13:26:17;;;;;;;2.75;1.63;;;;;;;;;;5028399;28;20021;-58
2021/09/08 13:28:43;;;;;;;4.82;1.90;;;;;;;;;;5042348;28;20458;-58
2021/09/08 13:31:09;;;;;;;3.33;1.73;;;;;;;;;;5045407;28;20026;-58
2021/09/08 13:33:35;;;;;;;2.65;1.90;;;;;;;;;;5049374;28;20469;-58
2021/09/08 13:36:01;;;;;;;3.88;2.00;;;;;;;;;;5049524;28;20056;-57
2021/09/08 13:38:27;;;;;;;2.78;1.85;;;;;;;;;;5052758;28;20036;-58
2021/09/08 13:40:53;;;;;;;2.88;1.90;;;;;;;;;;5040552;28;20068;-58
2021/09/08 13:43:19;;;;;;;2.65;1.60;;;;;;;;;;5050929;28;20033;-58
2021/09/08 13:45:45;;;;;;;2.83;1.40;;;;;;;;;;5051773;28;20039;-58
2021/09/08 13:48:12;;;;;;;6.05;1.40;;;;;;;;;;5049647;28;20033;-58
2021/09/08 13:50:38;;;;;;;3.25;1.75;;;;;;;;;;5047135;28;20579;-58
2021/09/08 13:53:03;;;;;;;3.08;1.70;;;;;;;;;;5047648;28;20033;-59
2021/09/08 13:55:29;;;;;;;2.92;1.38;;;;;;;;;;5046606;28;20122;-59
2021/09/08 13:57:55;;;;;;;6.28;1.48;;;;;;;;;;5049374;28;20036;-58
2021/09/08 14:00:22;;;;;;;2.85;1.85;;;;;;;;;;5047513;28;20083;-57
2021/09/08 14:02:48;;;;;;;2.70;1.60;;;;;;;;;;5043935;28;20025;-57
2021/09/08 14:05:14;;;;;;;2.15;1.40;;;;;;;;;;5045340;28;20466;-58
2021/09/08 14:07:40;;;;;;;2.38;1.30;;;;;;;;;;5046758;28;20067;-58
2021/09/08 14:10:06;;;;;;;3.67;1.67;;;;;;;;;;5053924;28;20053;-58
2021/09/08 14:12:33;;;;;;;5.28;1.30;;;;;;;;;;5049391;28;20120;-57
2021/09/08 14:14:59;;;;;;;2.47;1.45;;;;;;;;;;5050839;28;20025;-58
2021/09/08 14:17:25;;;;;;;3.47;1.67;;;;;;;;;;5056238;28;20444;-58
2021/09/08 14:19:51;;;;;;;3.13;1.83;;;;;;;;;;5039871;28;20071;-58
2021/09/08 14:22:17;;;;;;;2.80;1.60;;;;;;;;;;5037168;28;20507;-56
2021/09/08 14:24:43;;;;;;;4.65;1.92;;;;;;;;;;5044500;28;20033;-58
2021/09/08 14:27:09;;;;;;;3.88;1.67;;;;;;;;;;5041777;28;20812;-58
2021/09/08 14:29:35;;;;;;;3.72;1.83;;;;;;;;;;5045042;28;20029;-57
2021/09/08 14:32:03;;;;;;;2.63;1.83;;;;;;;;;;5039995;28;20313;-58
2021/09/08 14:34:29;;;;;;;2.45;1.50;;;;;;;;;;5049520;28;20071;-57
2021/09/08 14:36:55;;;;;;;2.85;1.63;;;;;;;;;;5054653;28;20119;-57
2021/09/08 14:39:22;;;;;;;3.60;1.80;;;;;;;;;;5048271;28;20108;-58